Time;durP1;ratioP1;P1;durP2;ratioP2;P2;SDS_P1;SDS_P2;PMS_P1;PMS_P2;Temp;Humidity;BMP_temperature;BMP_pressure;BME280_temperature;BME280_humidity;BME280_pressure;Samples;Min_cycle;Max_cycle;Signal;HPM_P1;HPM_P2
2022/10/16 00:00:00;;;;;;;;;;;11.40;99.90;;;;;;5121567;28;19971;-92
2022/10/16 00:02:26;;;;;;;;;;;11.40;99.90;;;;;;5131358;27;19979;-92
2022/10/16 00:04:51;;;;;;;;;;;12.90;99.90;;;;;;5151856;27;20315;-92
2022/10/16 00:07:21;;;;;;;;;;;10.50;99.90;;;;;;5130703;28;19980;-90
2022/10/16 00:09:47;;;;;;;;;;;11.40;99.90;;;;;;5141563;28;19924;-91
2022/10/16 00:12:12;;;;;;;;;;;11.30;99.90;;;;;;5090706;28;19935;-91
2022/10/16 00:14:40;;;;;;;;;;;11.30;99.90;;;;;;5113319;28;19912;-90
2022/10/16 00:17:06;;;;;;;;;;;11.30;99.90;;;;;;5138915;28;19911;-89
2022/10/16 00:19:31;;;;;;;;;;;11.40;99.90;;;;;;5139849;28;19947;-91
2022/10/16 00:21:57;;;;;;;;;;;11.40;99.90;;;;;;5157046;27;19971;-91
2022/10/16 00:24:23;;;;;;;;;;;11.30;99.90;;;;;;5140048;27;19971;-91
2022/10/16 00:26:49;;;;;;;;;;;11.40;99.90;;;;;;5126672;27;19943;-91
2022/10/16 00:29:15;;;;;;;;;;;11.40;99.90;;;;;;5130465;27;19935;-90
2022/10/16 00:31:43;;;;;;;;;;;11.40;99.90;;;;;;5110127;28;19987;-91
2022/10/16 00:34:08;;;;;;;;;;;11.40;99.90;;;;;;5114280;28;20420;-90
2022/10/16 00:36:36;;;;;;;;;;;11.40;99.90;;;;;;5114974;28;19924;-91
2022/10/16 00:39:02;;;;;;;;;;;11.30;99.90;;;;;;5118013;28;19927;-92
2022/10/16 00:41:28;;;;;;;;;;;11.30;99.90;;;;;;5099938;28;20423;-92
2022/10/16 00:43:58;;;;;;;;;;;11.30;99.90;;;;;;5116241;28;19923;-91
2022/10/16 00:46:26;;;;;;;;;;;11.50;99.90;;;;;;5120660;28;20266;-91
2022/10/16 00:48:57;;;;;;;;;;;11.30;99.90;;;;;;5116513;28;20117;-90
2022/10/16 00:51:25;;;;;;;;;;;11.50;99.90;;;;;;5116484;28;19999;-90
2022/10/16 00:53:51;;;;;;;;;;;11.60;99.90;;;;;;5138875;27;19923;-91
2022/10/16 00:56:17;;;;;;;;;;;11.60;99.90;;;;;;5146997;27;20264;-91
2022/10/16 00:58:43;;;;;;;;;;;11.40;99.90;;;;;;5102010;27;20013;-92
2022/10/16 01:01:08;;;;;;;;;;;11.80;99.90;;;;;;5101682;27;19970;-91
2022/10/16 01:03:35;;;;;;;;;;;11.60;99.90;;;;;;5119371;27;20370;-91
2022/10/16 01:06:03;;;;;;;;;;;11.50;99.90;;;;;;5119672;27;19930;-91
2022/10/16 01:08:35;;;;;;;;;;;11.50;99.90;;;;;;5103280;27;20411;-91
2022/10/16 01:11:07;;;;;;;;;;;11.50;99.90;;;;;;5119898;27;19923;-91
2022/10/16 01:13:40;;;;;;;;;;;11.50;99.90;;;;;;5128355;27;19975;-91
2022/10/16 01:16:09;;;;;;;;;;;11.50;99.90;;;;;;5124958;27;20707;-91
2022/10/16 01:18:41;;;;;;;;;;;11.50;99.90;;;;;;5123429;27;20256;-91
2022/10/16 01:21:13;;;;;;;;;;;11.50;99.90;;;;;;5115563;28;20287;-91
2022/10/16 01:23:48;;;;;;;;;;;11.10;99.90;;;;;;5129088;27;19924;-90
2022/10/16 01:26:14;;;;;;;;;;;11.60;99.90;;;;;;5102533;27;19977;-91
2022/10/16 01:28:43;;;;;;;;;;;11.50;99.90;;;;;;5102348;27;19923;-91
2022/10/16 01:31:10;;;;;;;;;;;11.80;99.90;;;;;;5101266;27;19927;-90
2022/10/16 01:33:40;;;;;;;;;;;11.40;99.90;;;;;;5102633;27;20006;-90
2022/10/16 01:36:13;;;;;;;;;;;11.40;99.90;;;;;;5102653;27;19923;-91
2022/10/16 01:38:40;;;;;;;;;;;11.60;99.90;;;;;;5119746;27;20290;-91
2022/10/16 01:41:08;;;;;;;;;;;11.00;99.90;;;;;;5101556;27;19924;-90
2022/10/16 01:43:37;;;;;;;;;;;11.40;99.90;;;;;;5101793;27;19969;-90
2022/10/16 01:46:03;;;;;;;;;;;11.40;99.90;;;;;;5118067;27;19935;-91
2022/10/16 01:48:29;;;;;;;;;;;11.40;99.90;;;;;;5118047;27;19924;-91
2022/10/16 01:51:00;;;;;;;;;;;11.40;99.90;;;;;;5118420;27;19929;-91
2022/10/16 01:53:26;;;;;;;;;;;11.50;99.90;;;;;;5118164;27;19935;-90
2022/10/16 01:55:53;;;;;;;;;;;11.50;99.90;;;;;;5100893;27;19927;-91
2022/10/16 01:58:18;;;;;;;;;;;11.40;99.90;;;;;;5110105;27;19924;-90
2022/10/16 02:00:46;;;;;;;;;;;11.70;99.90;;;;;;5115454;27;20006;-90
2022/10/16 02:03:13;;;;;;;;;;;11.50;99.90;;;;;;5117036;27;19928;-90
2022/10/16 02:05:38;;;;;;;;;;;11.60;99.90;;;;;;5116520;27;20275;-91
2022/10/16 02:08:04;;;;;;;;;;;11.70;99.90;;;;;;5118018;27;19931;-89
2022/10/16 02:10:30;;;;;;;;;;;11.60;99.90;;;;;;5101016;27;19931;-90
2022/10/16 02:13:14;;;;;;;;;;;11.70;99.90;;;;;;5102056;27;19931;-90
2022/10/16 02:15:43;;;;;;;;;;;9.60;99.90;;;;;;5101854;27;19999;-90
2022/10/16 02:18:11;;;;;;;;;;;11.70;99.90;;;;;;5101737;27;19923;-89
2022/10/16 02:20:42;;;;;;;;;;;12.00;99.90;;;;;;5101402;27;19924;-90
2022/10/16 02:23:14;;;;;;;;;;;11.70;99.90;;;;;;5101802;27;19923;-89
2022/10/16 02:25:43;;;;;;;;;;;10.70;99.90;;;;;;5101535;27;20381;-89
2022/10/16 02:28:17;;;;;;;;;;;11.60;99.90;;;;;;5101769;27;20009;-90
2022/10/16 02:30:50;;;;;;;;;;;11.60;99.90;;;;;;5101411;27;19923;-90
2022/10/16 02:33:17;;;;;;;;;;;11.60;99.90;;;;;;5101522;27;19924;-90
2022/10/16 02:35:43;;;;;;;;;;;11.90;99.90;;;;;;5101978;27;19923;-92
2022/10/16 02:38:09;;;;;;;;;;;11.10;99.90;;;;;;5102197;27;20419;-90
2022/10/16 02:40:37;;;;;;;;;;;11.90;99.90;;;;;;5100852;27;19928;-90
2022/10/16 02:43:04;;;;;;;;;;;11.90;99.90;;;;;;5101267;27;19949;-89
2022/10/16 02:45:37;;;;;;;;;;;10.10;99.90;;;;;;5100909;27;19933;-91
2022/10/16 02:48:03;;;;;;;;;;;11.80;99.90;;;;;;5101822;27;19924;-88
2022/10/16 02:50:31;;;;;;;;;;;12.20;99.90;;;;;;5101197;27;20022;-89
2022/10/16 02:52:59;;;;;;;;;;;11.90;99.90;;;;;;5100597;27;19931;-89
2022/10/16 02:55:27;;;;;;;;;;;11.80;99.90;;;;;;5100857;27;19931;-90
2022/10/16 02:57:56;;;;;;;;;;;11.90;99.90;;;;;;5101019;27;19924;-89
2022/10/16 03:00:21;;;;;;;;;;;12.30;99.90;;;;;;5101123;27;19935;-89
2022/10/16 03:02:49;;;;;;;;;;;12.00;99.90;;;;;;5101217;27;20006;-88
2022/10/16 03:05:15;;;;;;;;;;;11.50;99.90;;;;;;5101546;27;19924;-89
2022/10/16 03:07:41;;;;;;;;;;;12.50;99.90;;;;;;5100635;27;19950;-89
2022/10/16 03:10:09;;;;;;;;;;;11.90;99.90;;;;;;5101367;27;19927;-90
2022/10/16 03:12:37;;;;;;;;;;;12.10;99.90;;;;;;5100632;27;20270;-89
2022/10/16 03:15:06;;;;;;;;;;;11.90;99.90;;;;;;5101428;27;19923;-90
2022/10/16 03:17:43;;;;;;;;;;;12.20;99.90;;;;;;5100445;27;19983;-90
2022/10/16 03:20:11;;;;;;;;;;;12.00;99.90;;;;;;5084637;28;19923;-89
2022/10/16 03:22:36;;;;;;;;;;;12.00;99.90;;;;;;5079608;28;20420;-90
2022/10/16 03:25:05;;;;;;;;;;;11.90;99.90;;;;;;5063223;28;19931;-89
2022/10/16 03:27:33;;;;;;;;;;;12.40;99.90;;;;;;5080079;28;20316;-89
2022/10/16 03:30:03;;;;;;;;;;;11.90;99.90;;;;;;5079948;28;20305;-89
2022/10/16 03:32:29;;;;;;;;;;;11.90;99.90;;;;;;5080600;28;19924;-89
2022/10/16 03:34:59;;;;;;;;;;;12.10;99.90;;;;;;5080242;28;19947;-89
2022/10/16 03:37:25;;;;;;;;;;;11.80;99.90;;;;;;5080209;28;20308;-90
2022/10/16 03:39:56;;;;;;;;;;;11.80;99.90;;;;;;5079628;28;19937;-88
2022/10/16 03:42:21;;;;;;;;;;;11.80;99.90;;;;;;5080095;28;19932;-89
2022/10/16 03:44:49;;;;;;;;;;;11.80;99.90;;;;;;5080200;28;19977;-89
2022/10/16 03:47:22;;;;;;;;;;;11.90;99.90;;;;;;5080037;28;19924;-89
2022/10/16 03:49:48;;;;;;;;;;;12.00;99.90;;;;;;5079805;28;19924;-89
2022/10/16 03:52:17;;;;;;;;;;;12.00;99.90;;;;;;5080014;28;19942;-89
2022/10/16 03:54:42;;;;;;;;;;;11.70;99.90;;;;;;5079686;28;20317;-90
2022/10/16 03:57:08;;;;;;;;;;;13.50;99.90;;;;;;5079924;28;19923;-90
2022/10/16 03:59:36;;;;;;;;;;;11.80;99.90;;;;;;5079665;28;19967;-90
2022/10/16 04:02:02;;;;;;;;;;;11.70;99.90;;;;;;5079054;28;19923;-88
2022/10/16 04:04:28;;;;;;;;;;;11.70;99.90;;;;;;5079804;28;19968;-89
2022/10/16 04:06:56;;;;;;;;;;;11.90;99.90;;;;;;5079460;28;19986;-90
2022/10/16 04:09:21;;;;;;;;;;;11.60;99.90;;;;;;5063283;28;19950;-90
2022/10/16 04:11:47;;;;;;;;;;;11.70;99.90;;;;;;5080518;28;19924;-89
2022/10/16 04:14:13;;;;;;;;;;;11.60;99.90;;;;;;5082151;28;19924;-89
2022/10/16 04:16:48;;;;;;;;;;;12.20;99.90;;;;;;5085214;28;19924;-89
2022/10/16 04:19:14;;;;;;;;;;;11.80;99.90;;;;;;5072595;28;19923;-89
2022/10/16 04:21:42;;;;;;;;;;;11.60;99.90;;;;;;5100502;28;19923;-89
2022/10/16 04:24:08;;;;;;;;;;;12.30;99.90;;;;;;5087408;28;19923;-88
2022/10/16 04:26:34;;;;;;;;;;;11.50;99.90;;;;;;5108419;28;19986;-88
2022/10/16 04:28:59;;;;;;;;;;;10.50;99.90;;;;;;5106000;28;19923;-90
2022/10/16 04:31:25;;;;;;;;;;;11.60;99.90;;;;;;5106782;28;19935;-88
2022/10/16 04:33:53;;;;;;;;;;;11.60;99.90;;;;;;5109734;27;20025;-89
2022/10/16 04:36:19;;;;;;;;;;;11.50;99.90;;;;;;5104621;27;19924;-90
2022/10/16 04:38:44;;;;;;;;;;;11.60;99.90;;;;;;5103634;27;19946;-89
2022/10/16 04:41:10;;;;;;;;;;;11.50;99.90;;;;;;5103962;27;19978;-89
2022/10/16 04:43:36;;;;;;;;;;;11.50;99.90;;;;;;5103445;27;20355;-90
2022/10/16 04:46:04;;;;;;;;;;;11.50;99.90;;;;;;5103664;27;19930;-88
2022/10/16 04:48:30;;;;;;;;;;;11.40;99.90;;;;;;5103409;27;19931;-89
2022/10/16 04:50:56;;;;;;;;;;;11.60;99.90;;;;;;5103100;27;19931;-89
2022/10/16 04:53:22;;;;;;;;;;;11.50;99.90;;;;;;5103253;27;20343;-89
2022/10/16 04:55:47;;;;;;;;;;;11.60;99.90;;;;;;5103148;27;19923;-89
2022/10/16 04:58:18;;;;;;;;;;;12.00;99.90;;;;;;5103154;27;19979;-89
2022/10/16 05:00:46;;;;;;;;;;;12.10;99.90;;;;;;5102909;27;19927;-91
2022/10/16 05:03:12;;;;;;;;;;;11.80;99.90;;;;;;5103192;27;19924;-90
2022/10/16 05:05:42;;;;;;;;;;;12.00;99.90;;;;;;5103659;27;20393;-93
2022/10/16 05:08:07;;;;;;;;;;;12.00;99.90;;;;;;5103138;27;19923;-90
2022/10/16 05:10:35;;;;;;;;;;;11.90;99.90;;;;;;5103397;27;19924;-90
2022/10/16 05:13:04;;;;;;;;;;;12.30;99.90;;;;;;5087890;27;19931;-90
2022/10/16 05:15:34;;;;;;;;;;;12.30;99.90;;;;;;5102656;27;19953;-91
2022/10/16 05:18:03;;;;;;;;;;;12.20;99.90;;;;;;5086555;27;19924;-90
2022/10/16 05:20:28;;;;;;;;;;;11.90;99.90;;;;;;5085836;27;19923;-90
2022/10/16 05:22:56;;;;;;;;;;;11.90;99.90;;;;;;5102875;27;19949;-91
2022/10/16 05:25:22;;;;;;;;;;;11.80;99.90;;;;;;5102727;27;19923;-91
2022/10/16 05:27:50;;;;;;;;;;;11.60;99.90;;;;;;5102783;27;20017;-91
2022/10/16 05:30:26;;;;;;;;;;;11.90;99.90;;;;;;5103535;27;20037;-91
2022/10/16 05:32:52;;;;;;;;;;;11.80;99.90;;;;;;5103164;27;19934;-90
2022/10/16 05:35:45;;;;;;;;;;;11.90;99.90;;;;;;5102970;27;19972;-89
2022/10/16 05:38:11;;;;;;;;;;;11.60;99.90;;;;;;5120455;27;19992;-93
2022/10/16 05:40:41;;;;;;;;;;;11.70;99.90;;;;;;5103143;27;19930;-90
2022/10/16 05:43:15;;;;;;;;;;;11.60;99.90;;;;;;5102947;27;19927;-90
2022/10/16 05:45:43;;;;;;;;;;;11.60;99.90;;;;;;5102615;27;20079;-89
2022/10/16 05:48:08;;;;;;;;;;;11.70;99.90;;;;;;5102928;27;20006;-91
2022/10/16 05:50:44;;;;;;;;;;;11.70;99.90;;;;;;5102432;27;19971;-91
2022/10/16 05:53:12;;;;;;;;;;;11.60;99.90;;;;;;5086930;27;20032;-91
2022/10/16 05:55:38;;;;;;;;;;;11.70;99.90;;;;;;5085865;27;20205;-90
2022/10/16 05:58:06;;;;;;;;;;;11.90;99.90;;;;;;5102339;27;19927;-91
2022/10/16 06:00:39;;;;;;;;;;;10.50;99.90;;;;;;5085905;27;20026;-92
2022/10/16 06:03:08;;;;;;;;;;;11.80;99.90;;;;;;5103071;27;19939;-93
2022/10/16 06:05:44;;;;;;;;;;;;;;;;;;;;;
2022/10/16 06:08:10;;;;;;;;;;;9.90;99.90;;;;;;5119285;27;20268;-93
2022/10/16 06:10:38;;;;;;;;;;;11.80;99.90;;;;;;5102957;27;19930;-92
2022/10/16 06:13:04;;;;;;;;;;;11.70;99.90;;;;;;5085114;27;19924;-90
2022/10/16 06:15:32;;;;;;;;;;;11.80;99.90;;;;;;5102982;27;19981;-92
2022/10/16 06:18:00;;;;;;;;;;;11.80;99.90;;;;;;5101894;27;19924;-91
2022/10/16 06:20:28;;;;;;;;;;;12.00;99.90;;;;;;5101454;27;19923;-91
2022/10/16 06:22:56;;;;;;;;;;;11.70;99.90;;;;;;5101549;27;19923;-91
2022/10/16 06:25:22;;;;;;;;;;;11.70;99.90;;;;;;5101447;27;20063;-90
2022/10/16 06:27:48;;;;;;;;;;;11.80;99.90;;;;;;5084717;27;19992;-90
2022/10/16 06:30:16;;;;;;;;;;;11.70;99.90;;;;;;5101732;27;19924;-90
2022/10/16 06:32:55;;;;;;;;;;;11.90;99.90;;;;;;5102467;27;19929;-90
2022/10/16 06:35:23;;;;;;;;;;;11.80;99.90;;;;;;5101386;27;19930;-90
2022/10/16 06:37:48;;;;;;;;;;;12.60;99.90;;;;;;5101234;27;19972;-90
2022/10/16 06:40:16;;;;;;;;;;;12.20;99.90;;;;;;5101052;27;20324;-90
2022/10/16 06:42:49;;;;;;;;;;;12.20;99.90;;;;;;5083907;27;19945;-90
2022/10/16 06:45:18;;;;;;;;;;;12.10;99.90;;;;;;5101483;27;20017;-89
2022/10/16 06:47:46;;;;;;;;;;;12.20;99.90;;;;;;5085484;27;19930;-90
2022/10/16 06:50:14;;;;;;;;;;;12.10;99.90;;;;;;5101765;27;19923;-90
2022/10/16 06:52:42;;;;;;;;;;;12.30;99.90;;;;;;5101038;27;19985;-90
2022/10/16 06:55:08;;;;;;;;;;;12.40;99.90;;;;;;5100606;27;19980;-92
2022/10/16 06:57:33;;;;;;;;;;;12.10;99.90;;;;;;5101157;27;20200;-91
2022/10/16 06:59:59;;;;;;;;;;;11.70;99.90;;;;;;5101008;27;19930;-90
2022/10/16 07:02:27;;;;;;;;;;;12.40;99.90;;;;;;5100780;27;20010;-88
2022/10/16 07:04:53;;;;;;;;;;;12.40;99.90;;;;;;5100979;27;20010;-91
2022/10/16 07:07:31;;;;;;;;;;;12.60;99.90;;;;;;5101325;27;20374;-93
2022/10/16 07:13:19;;;;;;;;;;;12.40;99.90;;;;;;5136572;27;19918;-90
2022/10/16 07:15:45;;;;;;;;;;;12.70;99.90;;;;;;5100915;27;19971;-91
2022/10/16 07:18:13;;;;;;;;;;;12.70;99.90;;;;;;5100891;27;19931;-90
2022/10/16 07:20:44;;;;;;;;;;;12.60;99.90;;;;;;5100681;27;20006;-89
2022/10/16 07:23:13;;;;;;;;;;;12.20;99.90;;;;;;5117060;27;19976;-89
2022/10/16 07:25:52;;;;;;;;;;;14.20;99.90;;;;;;5100113;27;20018;-91
2022/10/16 07:28:18;;;;;;;;;;;12.40;99.90;;;;;;5100817;27;19923;-89
2022/10/16 07:30:46;;;;;;;;;;;12.90;99.90;;;;;;5100865;27;20339;-92
2022/10/16 07:33:17;;;;;;;;;;;10.30;99.90;;;;;;5084821;27;19923;-89
2022/10/16 07:35:53;;;;;;;;;;;12.40;99.90;;;;;;5083764;27;20270;-90
2022/10/16 07:38:20;;;;;;;;;;;12.30;99.90;;;;;;5100063;27;19930;-88
2022/10/16 07:40:48;;;;;;;;;;;12.40;99.90;;;;;;5100025;27;20298;-89
2022/10/16 07:43:14;;;;;;;;;;;12.40;99.90;;;;;;5099755;27;19923;-91
2022/10/16 07:45:49;;;;;;;;;;;10.90;99.90;;;;;;5100975;27;19930;-89
2022/10/16 07:48:18;;;;;;;;;;;12.50;99.90;;;;;;5117338;28;19923;-91
2022/10/16 07:50:48;;;;;;;;;;;12.50;99.90;;;;;;5117212;28;20397;-91
2022/10/16 07:53:14;;;;;;;;;;;11.70;99.90;;;;;;5100553;27;19923;-91
2022/10/16 07:55:40;;;;;;;;;;;12.70;99.90;;;;;;5099652;27;20421;-92
2022/10/16 07:58:06;;;;;;;;;;;12.80;99.90;;;;;;5099964;28;19930;-90
2022/10/16 08:00:37;;;;;;;;;;;12.70;99.90;;;;;;5100365;28;19969;-92
2022/10/16 08:03:03;;;;;;;;;;;12.80;99.90;;;;;;5099663;28;20370;-91
2022/10/16 08:05:30;;;;;;;;;;;13.30;99.90;;;;;;5100012;28;19928;-91
2022/10/16 08:07:59;;;;;;;;;;;13.40;99.90;;;;;;5101083;27;20444;-91
2022/10/16 08:10:34;;;;;;;;;;;15.40;99.90;;;;;;5104624;27;19967;-93
2022/10/16 08:13:16;;;;;;;;;;;13.00;99.90;;;;;;5087940;27;19923;-93
2022/10/16 08:16:01;;;;;;;;;;;13.30;99.90;;;;;;5104441;27;19930;-91
2022/10/16 08:18:36;;;;;;;;;;;12.90;99.90;;;;;;5104162;27;20293;-92
2022/10/16 08:21:14;;;;;;;;;;;13.00;99.90;;;;;;5104905;27;19923;-93
2022/10/16 08:23:39;;;;;;;;;;;12.40;99.90;;;;;;5110590;27;19930;-86
2022/10/16 08:26:08;;;;;;;;;;;12.90;99.90;;;;;;5111924;27;20355;-88
2022/10/16 08:28:34;;;;;;;;;;;12.80;99.90;;;;;;5128010;27;19927;-88
2022/10/16 08:31:10;;;;;;;;;;;11.60;99.90;;;;;;5111194;27;19973;-88
2022/10/16 08:33:36;;;;;;;;;;;12.90;99.90;;;;;;5113649;27;20278;-89
2022/10/16 08:36:02;;;;;;;;;;;12.90;99.90;;;;;;5112858;27;19967;-90
2022/10/16 08:38:30;;;;;;;;;;;13.00;99.90;;;;;;5105772;27;20223;-89
2022/10/16 08:41:08;;;;;;;;;;;13.50;99.90;;;;;;5103558;27;20298;-89
2022/10/16 08:44:00;;;;;;;;;;;13.70;99.90;;;;;;5103824;27;20031;-90
2022/10/16 08:46:32;;;;;;;;;;;13.70;99.90;;;;;;5103743;27;19977;-92
2022/10/16 08:49:01;;;;;;;;;;;13.30;99.90;;;;;;5103677;27;19971;-88
2022/10/16 08:51:31;;;;;;;;;;;13.30;99.90;;;;;;5102895;27;20018;-90
2022/10/16 08:53:58;;;;;;;;;;;13.50;99.90;;;;;;5103022;27;19995;-89
2022/10/16 08:56:24;;;;;;;;;;;13.80;99.90;;;;;;5103310;27;19967;-91
2022/10/16 08:58:51;;;;;;;;;;;13.70;99.90;;;;;;5103847;27;19945;-89
2022/10/16 09:01:18;;;;;;;;;;;13.60;99.90;;;;;;5102886;27;19945;-91
2022/10/16 09:03:47;;;;;;;;;;;13.90;99.90;;;;;;5102620;27;19931;-89
2022/10/16 09:06:19;;;;;;;;;;;14.30;99.90;;;;;;5103718;27;20291;-88
2022/10/16 09:08:53;;;;;;;;;;;13.80;99.90;;;;;;5102182;27;19930;-90
2022/10/16 09:11:39;;;;;;;;;;;14.00;99.90;;;;;;5102882;27;19924;-90
2022/10/16 09:14:36;;;;;;;;;;;14.50;99.90;;;;;;5102510;27;19934;-90
2022/10/16 09:17:18;;;;;;;;;;;13.30;99.90;;;;;;5103605;27;20019;-90
2022/10/16 09:19:52;;;;;;;;;;;13.00;99.90;;;;;;5102105;27;19938;-92
2022/10/16 09:22:21;;;;;;;;;;;14.40;99.90;;;;;;5120420;27;19923;-90
2022/10/16 09:25:03;;;;;;;;;;;;;;;;;;;;;
2022/10/16 09:27:30;;;;;;;;;;;14.40;99.90;;;;;;5105038;27;19923;-88
2022/10/16 09:29:55;;;;;;;;;;;14.50;99.90;;;;;;5120139;27;19927;-90
2022/10/16 09:32:24;;;;;;;;;;;13.30;99.90;;;;;;5087160;27;19935;-89
2022/10/16 09:34:52;;;;;;;;;;;15.00;99.90;;;;;;5102927;27;19928;-89
2022/10/16 09:37:19;;;;;;;;;;;14.60;99.90;;;;;;5102326;27;19931;-89
2022/10/16 09:39:48;;;;;;;;;;;14.80;99.90;;;;;;5102650;27;19933;-90
2022/10/16 09:42:18;;;;;;;;;;;14.80;99.90;;;;;;5102491;27;19988;-90
2022/10/16 09:44:47;;;;;;;;;;;14.80;99.90;;;;;;5101989;27;19953;-90
2022/10/16 09:47:17;;;;;;;;;;;14.80;99.90;;;;;;5102165;27;20026;-89
2022/10/16 09:50:01;;;;;;;;;;;14.60;99.90;;;;;;5102776;27;20488;-92
2022/10/16 09:52:30;;;;;;;;;;;14.50;99.90;;;;;;5102557;27;20363;-90
2022/10/16 09:55:05;;;;;;;;;;;14.90;99.90;;;;;;5102472;27;19976;-89
2022/10/16 09:57:33;;;;;;;;;;;14.90;99.90;;;;;;5102828;27;19927;-90
2022/10/16 09:59:59;;;;;;;;;;;14.80;99.90;;;;;;5086333;27;19967;-90
2022/10/16 10:02:30;;;;;;;;;;;14.80;99.90;;;;;;5084903;27;20403;-90
2022/10/16 10:04:57;;;;;;;;;;;14.80;99.90;;;;;;5102149;27;19923;-90
2022/10/16 10:07:38;;;;;;;;;;;15.50;99.90;;;;;;5102108;27;20397;-89
2022/10/16 10:10:07;;;;;;;;;;;15.20;99.90;;;;;;5102025;27;19924;-90
2022/10/16 10:12:36;;;;;;;;;;;15.50;99.90;;;;;;5101790;27;19978;-90
2022/10/16 10:15:07;;;;;;;;;;;14.90;99.90;;;;;;5102662;27;19953;-89
2022/10/16 10:17:32;;;;;;;;;;;15.80;99.90;;;;;;5102227;27;20039;-90
2022/10/16 10:20:12;;;;;;;;;;;;;;;;;;;;;
2022/10/16 10:22:38;;;;;;;;;;;14.90;99.90;;;;;;5098473;28;19939;-89
2022/10/16 10:25:13;;;;;;;;;;;15.90;99.90;;;;;;5081821;28;19924;-93
2022/10/16 10:27:54;;;;;;;;;;;15.80;99.90;;;;;;5081638;28;20299;-92
2022/10/16 10:30:44;;;;;;;;;;;15.80;99.90;;;;;;5082275;28;19973;-92
2022/10/16 10:33:18;;;;;;;;;;;15.80;99.90;;;;;;5091367;28;20017;-92
2022/10/16 10:36:16;;;;;;;;;;;15.90;99.90;;;;;;5085368;28;19946;-92
2022/10/16 10:38:57;;;;;;;;;;;16.20;99.90;;;;;;5082636;28;19923;-94
2022/10/16 10:44:32;;;;;;;;;;;14.20;99.90;;;;;;5099744;28;20367;-93
2022/10/16 10:47:14;;;;;;;;;;;16.00;99.90;;;;;;5081683;28;20014;-91
2022/10/16 10:49:54;;;;;;;;;;;16.20;99.90;;;;;;5082611;28;19931;-94
2022/10/16 10:52:55;;;;;;;;;;;16.30;99.90;;;;;;5083782;28;19928;-91
2022/10/16 10:55:26;;;;;;;;;;;14.90;99.90;;;;;;5082369;28;19930;-91
2022/10/16 10:58:18;;;;;;;;;;;16.30;99.90;;;;;;5081925;28;19932;-92
2022/10/16 11:01:13;;;;;;;;;;;15.90;99.90;;;;;;5081940;28;19924;-91
2022/10/16 11:04:01;;;;;;;;;;;14.70;99.90;;;;;;5097808;28;19992;-93
2022/10/16 11:07:07;;;;;;;;;;;16.20;99.90;;;;;;5098585;28;19924;-91
2022/10/16 11:13:26;;;;;;;;;;;17.30;99.90;;;;;;5077016;28;19924;-91
2022/10/16 11:16:29;;;;;;;;;;;17.80;99.90;;;;;;5077493;28;19924;-90
2022/10/16 11:19:22;;;;;;;;;;;16.10;99.90;;;;;;5080364;28;19931;-89
2022/10/16 11:21:53;;;;;;;;;;;15.20;99.90;;;;;;5080620;28;19931;-89
2022/10/16 11:24:22;;;;;;;;;;;16.20;99.90;;;;;;5079950;28;20371;-88
2022/10/16 11:26:52;;;;;;;;;;;16.60;99.90;;;;;;5072661;28;19924;-88
2022/10/16 11:29:25;;;;;;;;;;;16.60;99.90;;;;;;5080122;28;20348;-89
2022/10/16 11:31:53;;;;;;;;;;;16.40;99.90;;;;;;5079486;28;20367;-91
2022/10/16 11:34:26;;;;;;;;;;;15.70;99.90;;;;;;5097214;28;20339;-88
2022/10/16 11:37:10;;;;;;;;;;;16.20;99.90;;;;;;5079832;28;19930;-86
2022/10/16 11:39:41;;;;;;;;;;;16.20;99.90;;;;;;5079675;28;19976;-89
2022/10/16 11:42:26;;;;;;;;;;;16.30;99.90;;;;;;5064731;28;20014;-91
2022/10/16 11:45:00;;;;;;;;;;;16.20;99.90;;;;;;5080533;28;20015;-88
2022/10/16 11:47:30;;;;;;;;;;;15.90;99.90;;;;;;5082601;28;19967;-89
2022/10/16 11:50:06;;;;;;;;;;;15.70;99.90;;;;;;5080219;28;20379;-90
2022/10/16 11:52:39;;;;;;;;;;;15.80;99.90;;;;;;5063226;28;19924;-91
2022/10/16 11:55:10;;;;;;;;;;;15.90;99.90;;;;;;5080104;28;19924;-93
2022/10/16 11:57:49;;;;;;;;;;;16.00;99.90;;;;;;5079749;28;19986;-91
2022/10/16 12:00:26;;;;;;;;;;;14.70;99.90;;;;;;5079898;28;19930;-91
2022/10/16 12:02:56;;;;;;;;;;;15.90;99.90;;;;;;5079617;28;19923;-93
2022/10/16 12:05:32;;;;;;;;;;;15.70;99.90;;;;;;5079773;28;19936;-91
2022/10/16 12:08:12;;;;;;;;;;;15.40;99.90;;;;;;5079776;28;19967;-92
2022/10/16 12:10:39;;;;;;;;;;;15.80;99.90;;;;;;5081021;28;20022;-92
2022/10/16 12:13:27;;;;;;;;;;;15.40;99.90;;;;;;5080193;28;19924;-93
2022/10/16 12:16:12;;;;;;;;;;;14.30;99.90;;;;;;5080277;28;19924;-92
2022/10/16 12:18:43;;;;;;;;;;;16.20;99.90;;;;;;5087456;27;19945;-92
2022/10/16 12:21:10;;;;;;;;;;;16.20;99.90;;;;;;5082139;28;20382;-91
2022/10/16 12:23:57;;;;;;;;;;;16.40;99.90;;;;;;5082866;28;19924;-91
2022/10/16 12:26:35;;;;;;;;;;;15.20;99.90;;;;;;5070145;28;20339;-92
2022/10/16 12:29:22;;;;;;;;;;;16.80;99.90;;;;;;5090258;28;19935;-91
2022/10/16 12:31:48;;;;;;;;;;;16.90;99.90;;;;;;5092331;28;20251;-88
2022/10/16 12:34:21;;;;;;;;;;;17.30;99.90;;;;;;5090842;28;19950;-89
2022/10/16 12:36:47;;;;;;;;;;;17.30;99.90;;;;;;5085476;28;20019;-91
2022/10/16 12:39:21;;;;;;;;;;;17.20;99.90;;;;;;5088109;28;20029;-88
2022/10/16 12:42:03;;;;;;;;;;;17.40;99.90;;;;;;5107760;28;19924;-87
2022/10/16 12:44:35;;;;;;;;;;;17.50;99.90;;;;;;5083066;28;19923;-89
2022/10/16 12:47:06;;;;;;;;;;;17.30;99.90;;;;;;5063888;28;19927;-88
2022/10/16 12:49:38;;;;;;;;;;;17.40;99.90;;;;;;5080312;28;19935;-89
2022/10/16 12:52:05;;;;;;;;;;;17.10;99.90;;;;;;5080193;28;20019;-88
2022/10/16 12:54:34;;;;;;;;;;;16.90;99.90;;;;;;5081056;28;20488;-87
2022/10/16 12:57:03;;;;;;;;;;;16.80;99.90;;;;;;5083225;28;19949;-87
2022/10/16 12:59:41;;;;;;;;;;;16.80;99.90;;;;;;5083175;28;19924;-89
2022/10/16 13:02:16;;;;;;;;;;;16.50;99.90;;;;;;5083668;28;19923;-88
2022/10/16 13:05:01;;;;;;;;;;;16.40;99.90;;;;;;5083746;28;19924;-90
2022/10/16 13:07:32;;;;;;;;;;;16.30;99.90;;;;;;5083679;28;19930;-90
2022/10/16 13:10:26;;;;;;;;;;;16.10;99.90;;;;;;5083178;28;20347;-89
2022/10/16 13:12:55;;;;;;;;;;;16.10;99.90;;;;;;5080015;28;19934;-90
2022/10/16 13:15:36;;;;;;;;;;;16.00;99.90;;;;;;5083651;28;19974;-89
2022/10/16 13:18:14;;;;;;;;;;;15.90;99.90;;;;;;5082860;28;19969;-90
2022/10/16 13:20:56;;;;;;;;;;;15.90;99.90;;;;;;5098415;27;19946;-90
2022/10/16 13:23:29;;;;;;;;;;;15.90;99.90;;;;;;5102925;27;19925;-90
2022/10/16 13:26:04;;;;;;;;;;;15.90;99.90;;;;;;5102676;27;19930;-91
2022/10/16 13:28:39;;;;;;;;;;;15.90;99.90;;;;;;5102914;27;19991;-90
2022/10/16 13:31:10;;;;;;;;;;;15.90;99.90;;;;;;5102340;27;19924;-90
2022/10/16 13:33:52;;;;;;;;;;;14.90;99.90;;;;;;5103439;27;20267;-89
2022/10/16 13:36:23;;;;;;;;;;;16.00;99.90;;;;;;5102376;27;19930;-90
2022/10/16 13:39:11;;;;;;;;;;;16.20;99.90;;;;;;5101878;27;19923;-90
2022/10/16 13:41:37;;;;;;;;;;;16.20;99.90;;;;;;5101900;27;19944;-88
2022/10/16 13:44:03;;;;;;;;;;;15.30;99.90;;;;;;5102539;27;20259;-89
2022/10/16 13:46:34;;;;;;;;;;;16.30;99.90;;;;;;5102066;27;19924;-92
2022/10/16 13:49:03;;;;;;;;;;;16.40;99.90;;;;;;5101502;27;19928;-89
2022/10/16 13:51:29;;;;;;;;;;;16.50;99.90;;;;;;5101966;27;19946;-89
2022/10/16 13:53:58;;;;;;;;;;;16.60;99.90;;;;;;5102217;27;19924;-89
2022/10/16 13:56:28;;;;;;;;;;;17.10;99.90;;;;;;5102787;27;19945;-89
2022/10/16 13:59:03;;;;;;;;;;;15.50;99.90;;;;;;5102943;27;20006;-88
2022/10/16 14:01:33;;;;;;;;;;;16.40;99.90;;;;;;5101463;27;19971;-89
2022/10/16 14:04:12;;;;;;;;;;;16.20;99.90;;;;;;5101194;27;19924;-89
2022/10/16 14:06:42;;;;;;;;;;;15.90;99.90;;;;;;5101296;27;19923;-89
2022/10/16 14:09:27;;;;;;;;;;;15.90;99.90;;;;;;5100709;27;19938;-88
2022/10/16 14:12:01;;;;;;;;;;;15.90;99.90;;;;;;5100371;27;19949;-88
2022/10/16 14:14:43;;;;;;;;;;;16.10;99.90;;;;;;5101363;27;20304;-87
2022/10/16 14:17:20;;;;;;;;;;;16.20;99.90;;;;;;5100988;27;19924;-88
2022/10/16 14:19:53;;;;;;;;;;;16.40;99.90;;;;;;5101328;27;20335;-87
2022/10/16 14:22:45;;;;;;;;;;;16.50;99.90;;;;;;5118648;27;19924;-87
2022/10/16 14:25:21;;;;;;;;;;;16.60;99.90;;;;;;5097024;27;20332;-88
2022/10/16 14:28:00;;;;;;;;;;;16.70;99.90;;;;;;5101217;27;19924;-89
2022/10/16 14:30:27;;;;;;;;;;;16.60;99.90;;;;;;5100556;27;20395;-88
2022/10/16 14:33:00;;;;;;;;;;;16.50;99.90;;;;;;5119146;27;19977;-87
2022/10/16 14:35:31;;;;;;;;;;;16.40;99.90;;;;;;5118029;27;19999;-88
2022/10/16 14:37:57;;;;;;;;;;;16.20;99.90;;;;;;5101342;27;19972;-87
2022/10/16 14:40:25;;;;;;;;;;;16.20;99.90;;;;;;5100991;27;20302;-88
2022/10/16 14:42:51;;;;;;;;;;;16.00;99.90;;;;;;5101205;27;19923;-87
2022/10/16 14:45:28;;;;;;;;;;;15.90;99.90;;;;;;5101698;27;20017;-89
2022/10/16 14:47:55;;;;;;;;;;;15.80;99.90;;;;;;5101279;27;19923;-89
2022/10/16 14:50:21;;;;;;;;;;;15.40;99.90;;;;;;5100650;27;20398;-89
2022/10/16 14:52:47;;;;;;;;;;;15.70;99.90;;;;;;5100394;27;19966;-89